sensor_id;sensor_type;location;lat;lon;timestamp;P1;durP1;ratioP1;P2;durP2;ratioP2
4885;SDS011;2457;51.788;6.136;2023-05-10T00:02:10;13.33;;;7.33;;
4885;SDS011;2457;51.788;6.136;2023-05-10T00:04:37;15.23;;;8.60;;
4885;SDS011;2457;51.788;6.136;2023-05-10T00:07:04;15.00;;;8.17;;
4885;SDS011;2457;51.788;6.136;2023-05-10T00:09:32;13.87;;;9.00;;
4885;SDS011;2457;51.788;6.136;2023-05-10T00:11:59;15.40;;;8.83;;
4885;SDS011;2457;51.788;6.136;2023-05-10T00:14:26;19.67;;;10.40;;
4885;SDS011;2457;51.788;6.136;2023-05-10T00:16:53;15.13;;;8.80;;
4885;SDS011;2457;51.788;6.136;2023-05-10T00:19:21;17.50;;;9.87;;
4885;SDS011;2457;51.788;6.136;2023-05-10T00:21:48;15.63;;;9.30;;
4885;SDS011;2457;51.788;6.136;2023-05-10T00:24:15;17.20;;;9.23;;
4885;SDS011;2457;51.788;6.136;2023-05-10T00:26:42;17.90;;;9.53;;
4885;SDS011;2457;51.788;6.136;2023-05-10T00:29:10;18.63;;;10.47;;
4885;SDS011;2457;51.788;6.136;2023-05-10T00:31:37;17.70;;;9.90;;
4885;SDS011;2457;51.788;6.136;2023-05-10T00:34:04;21.23;;;11.30;;
4885;SDS011;2457;51.788;6.136;2023-05-10T00:36:31;21.77;;;11.70;;
4885;SDS011;2457;51.788;6.136;2023-05-10T00:38:59;24.20;;;12.53;;
4885;SDS011;2457;51.788;6.136;2023-05-10T00:41:26;24.77;;;12.27;;
4885;SDS011;2457;51.788;6.136;2023-05-10T00:43:53;20.53;;;11.80;;
4885;SDS011;2457;51.788;6.136;2023-05-10T00:46:21;20.83;;;11.90;;
4885;SDS011;2457;51.788;6.136;2023-05-10T00:48:48;24.57;;;13.80;;
4885;SDS011;2457;51.788;6.136;2023-05-10T00:51:16;22.80;;;12.73;;
4885;SDS011;2457;51.788;6.136;2023-05-10T00:53:43;21.80;;;12.60;;
4885;SDS011;2457;51.788;6.136;2023-05-10T00:56:11;22.50;;;13.17;;
4885;SDS011;2457;51.788;6.136;2023-05-10T00:58:39;24.17;;;12.70;;
4885;SDS011;2457;51.788;6.136;2023-05-10T01:01:07;23.87;;;13.13;;
4885;SDS011;2457;51.788;6.136;2023-05-10T01:03:35;23.20;;;12.80;;
4885;SDS011;2457;51.788;6.136;2023-05-10T01:06:03;23.27;;;12.93;;
4885;SDS011;2457;51.788;6.136;2023-05-10T01:08:30;22.90;;;13.23;;
4885;SDS011;2457;51.788;6.136;2023-05-10T01:10:57;26.60;;;14.63;;
4885;SDS011;2457;51.788;6.136;2023-05-10T01:13:39;24.77;;;13.33;;
4885;SDS011;2457;51.788;6.136;2023-05-10T01:16:03;23.20;;;13.13;;
4885;SDS011;2457;51.788;6.136;2023-05-10T01:18:31;24.70;;;13.87;;
4885;SDS011;2457;51.788;6.136;2023-05-10T01:21:06;23.47;;;13.47;;
4885;SDS011;2457;51.788;6.136;2023-05-10T01:31:40;23.77;;;12.57;;
4885;SDS011;2457;51.788;6.136;2023-05-10T01:34:08;23.53;;;12.83;;
4885;SDS011;2457;51.788;6.136;2023-05-10T01:36:40;23.70;;;12.80;;
4885;SDS011;2457;51.788;6.136;2023-05-10T01:39:35;21.77;;;12.40;;
4885;SDS011;2457;51.788;6.136;2023-05-10T01:41:39;24.07;;;12.90;;
4885;SDS011;2457;51.788;6.136;2023-05-10T01:44:09;20.53;;;12.00;;
4885;SDS011;2457;51.788;6.136;2023-05-10T01:46:39;23.07;;;11.43;;
4885;SDS011;2457;51.788;6.136;2023-05-10T01:49:06;24.53;;;12.47;;
4885;SDS011;2457;51.788;6.136;2023-05-10T01:51:35;23.90;;;12.70;;
4885;SDS011;2457;51.788;6.136;2023-05-10T01:54:01;20.43;;;11.97;;
4885;SDS011;2457;51.788;6.136;2023-05-10T01:56:29;20.77;;;12.57;;
4885;SDS011;2457;51.788;6.136;2023-05-10T01:58:57;20.37;;;12.67;;
4885;SDS011;2457;51.788;6.136;2023-05-10T02:01:25;19.63;;;10.97;;
4885;SDS011;2457;51.788;6.136;2023-05-10T02:03:54;22.60;;;13.10;;
4885;SDS011;2457;51.788;6.136;2023-05-10T02:06:23;24.13;;;12.40;;
4885;SDS011;2457;51.788;6.136;2023-05-10T02:08:51;24.13;;;12.67;;
4885;SDS011;2457;51.788;6.136;2023-05-10T02:11:19;20.90;;;11.37;;
4885;SDS011;2457;51.788;6.136;2023-05-10T02:13:48;20.77;;;11.80;;
4885;SDS011;2457;51.788;6.136;2023-05-10T02:16:16;21.47;;;12.57;;
4885;SDS011;2457;51.788;6.136;2023-05-10T02:18:44;23.40;;;13.63;;
4885;SDS011;2457;51.788;6.136;2023-05-10T02:21:11;23.13;;;11.30;;
4885;SDS011;2457;51.788;6.136;2023-05-10T02:23:40;20.47;;;12.07;;
4885;SDS011;2457;51.788;6.136;2023-05-10T02:26:07;25.63;;;12.50;;
4885;SDS011;2457;51.788;6.136;2023-05-10T02:28:35;27.20;;;13.90;;
4885;SDS011;2457;51.788;6.136;2023-05-10T02:31:03;23.83;;;13.40;;
4885;SDS011;2457;51.788;6.136;2023-05-10T02:33:32;24.67;;;13.40;;
4885;SDS011;2457;51.788;6.136;2023-05-10T02:36:01;24.20;;;14.20;;
4885;SDS011;2457;51.788;6.136;2023-05-10T02:38:29;27.10;;;14.67;;
4885;SDS011;2457;51.788;6.136;2023-05-10T02:40:57;25.50;;;14.20;;
4885;SDS011;2457;51.788;6.136;2023-05-10T02:43:26;24.20;;;13.23;;
4885;SDS011;2457;51.788;6.136;2023-05-10T02:45:55;26.30;;;12.90;;
4885;SDS011;2457;51.788;6.136;2023-05-10T02:48:22;26.47;;;13.40;;
4885;SDS011;2457;51.788;6.136;2023-05-10T02:50:50;22.93;;;13.33;;
4885;SDS011;2457;51.788;6.136;2023-05-10T02:53:22;22.77;;;13.63;;
4885;SDS011;2457;51.788;6.136;2023-05-10T02:55:50;24.33;;;12.73;;
4885;SDS011;2457;51.788;6.136;2023-05-10T02:58:18;25.00;;;13.93;;
4885;SDS011;2457;51.788;6.136;2023-05-10T03:00:47;22.70;;;12.43;;
4885;SDS011;2457;51.788;6.136;2023-05-10T03:03:14;22.80;;;12.07;;
4885;SDS011;2457;51.788;6.136;2023-05-10T03:05:41;29.33;;;12.00;;
4885;SDS011;2457;51.788;6.136;2023-05-10T03:08:08;26.10;;;13.67;;
4885;SDS011;2457;51.788;6.136;2023-05-10T03:10:38;23.27;;;13.03;;
4885;SDS011;2457;51.788;6.136;2023-05-10T03:13:16;29.93;;;13.50;;
4885;SDS011;2457;51.788;6.136;2023-05-10T03:15:56;24.93;;;13.93;;
4885;SDS011;2457;51.788;6.136;2023-05-10T03:18:22;24.00;;;12.63;;
4885;SDS011;2457;51.788;6.136;2023-05-10T03:20:50;28.77;;;15.83;;
4885;SDS011;2457;51.788;6.136;2023-05-10T03:25:47;29.33;;;14.27;;
4885;SDS011;2457;51.788;6.136;2023-05-10T03:28:17;29.73;;;14.03;;
4885;SDS011;2457;51.788;6.136;2023-05-10T03:30:45;34.83;;;15.00;;
4885;SDS011;2457;51.788;6.136;2023-05-10T03:33:13;28.50;;;14.63;;
4885;SDS011;2457;51.788;6.136;2023-05-10T03:35:40;28.97;;;14.23;;
4885;SDS011;2457;51.788;6.136;2023-05-10T03:38:07;26.80;;;13.63;;
4885;SDS011;2457;51.788;6.136;2023-05-10T03:40:35;26.43;;;14.77;;
4885;SDS011;2457;51.788;6.136;2023-05-10T03:43:02;26.73;;;13.33;;
4885;SDS011;2457;51.788;6.136;2023-05-10T03:45:29;31.00;;;16.20;;
4885;SDS011;2457;51.788;6.136;2023-05-10T03:47:57;22.90;;;12.73;;
4885;SDS011;2457;51.788;6.136;2023-05-10T03:50:25;29.83;;;13.97;;
4885;SDS011;2457;51.788;6.136;2023-05-10T03:52:52;28.87;;;15.30;;
4885;SDS011;2457;51.788;6.136;2023-05-10T03:55:19;28.30;;;14.47;;
4885;SDS011;2457;51.788;6.136;2023-05-10T03:57:47;32.60;;;16.00;;
4885;SDS011;2457;51.788;6.136;2023-05-10T04:00:16;29.43;;;15.83;;
4885;SDS011;2457;51.788;6.136;2023-05-10T04:02:43;31.27;;;14.63;;
4885;SDS011;2457;51.788;6.136;2023-05-10T04:05:10;26.73;;;15.23;;
4885;SDS011;2457;51.788;6.136;2023-05-10T04:07:38;29.07;;;14.40;;
4885;SDS011;2457;51.788;6.136;2023-05-10T04:10:05;26.20;;;14.43;;
4885;SDS011;2457;51.788;6.136;2023-05-10T04:12:32;30.70;;;15.90;;
4885;SDS011;2457;51.788;6.136;2023-05-10T04:15:00;31.13;;;15.87;;
4885;SDS011;2457;51.788;6.136;2023-05-10T04:17:27;33.07;;;14.77;;
4885;SDS011;2457;51.788;6.136;2023-05-10T04:19:54;30.00;;;15.07;;
4885;SDS011;2457;51.788;6.136;2023-05-10T04:22:22;28.20;;;14.40;;
4885;SDS011;2457;51.788;6.136;2023-05-10T04:24:50;26.73;;;15.53;;
4885;SDS011;2457;51.788;6.136;2023-05-10T04:27:17;29.00;;;14.50;;
4885;SDS011;2457;51.788;6.136;2023-05-10T04:29:44;34.80;;;15.17;;
4885;SDS011;2457;51.788;6.136;2023-05-10T04:32:11;29.40;;;16.23;;
4885;SDS011;2457;51.788;6.136;2023-05-10T04:34:39;34.10;;;16.10;;
4885;SDS011;2457;51.788;6.136;2023-05-10T04:37:06;35.10;;;15.33;;
4885;SDS011;2457;51.788;6.136;2023-05-10T04:39:34;28.90;;;15.50;;
4885;SDS011;2457;51.788;6.136;2023-05-10T04:42:02;27.00;;;14.93;;
4885;SDS011;2457;51.788;6.136;2023-05-10T04:44:32;32.10;;;15.03;;
4885;SDS011;2457;51.788;6.136;2023-05-10T04:46:59;30.13;;;15.33;;
4885;SDS011;2457;51.788;6.136;2023-05-10T04:49:28;31.97;;;15.03;;
4885;SDS011;2457;51.788;6.136;2023-05-10T04:51:56;30.87;;;14.80;;
4885;SDS011;2457;51.788;6.136;2023-05-10T04:54:23;29.40;;;14.87;;
4885;SDS011;2457;51.788;6.136;2023-05-10T04:56:51;30.23;;;15.67;;
4885;SDS011;2457;51.788;6.136;2023-05-10T04:59:18;27.70;;;14.90;;
4885;SDS011;2457;51.788;6.136;2023-05-10T05:01:46;28.00;;;14.63;;
4885;SDS011;2457;51.788;6.136;2023-05-10T05:04:13;29.47;;;15.10;;
4885;SDS011;2457;51.788;6.136;2023-05-10T05:06:40;27.90;;;14.90;;
4885;SDS011;2457;51.788;6.136;2023-05-10T05:09:08;27.37;;;15.30;;
4885;SDS011;2457;51.788;6.136;2023-05-10T05:11:36;29.50;;;15.90;;
4885;SDS011;2457;51.788;6.136;2023-05-10T05:14:03;30.60;;;14.83;;
4885;SDS011;2457;51.788;6.136;2023-05-10T05:16:31;29.13;;;15.13;;
4885;SDS011;2457;51.788;6.136;2023-05-10T05:18:59;31.90;;;16.33;;
4885;SDS011;2457;51.788;6.136;2023-05-10T05:21:27;30.20;;;15.30;;
4885;SDS011;2457;51.788;6.136;2023-05-10T05:23:55;27.67;;;14.27;;
4885;SDS011;2457;51.788;6.136;2023-05-10T05:26:22;31.70;;;15.27;;
4885;SDS011;2457;51.788;6.136;2023-05-10T05:28:49;31.73;;;16.57;;
4885;SDS011;2457;51.788;6.136;2023-05-10T05:31:18;32.70;;;15.60;;
4885;SDS011;2457;51.788;6.136;2023-05-10T05:33:45;28.00;;;15.47;;
4885;SDS011;2457;51.788;6.136;2023-05-10T05:36:13;33.60;;;16.20;;
4885;SDS011;2457;51.788;6.136;2023-05-10T05:38:40;29.77;;;14.77;;
4885;SDS011;2457;51.788;6.136;2023-05-10T05:41:07;28.80;;;15.93;;
4885;SDS011;2457;51.788;6.136;2023-05-10T05:43:34;33.40;;;14.60;;
4885;SDS011;2457;51.788;6.136;2023-05-10T05:46:02;32.23;;;16.37;;
4885;SDS011;2457;51.788;6.136;2023-05-10T05:48:29;34.80;;;16.07;;
4885;SDS011;2457;51.788;6.136;2023-05-10T05:50:57;27.57;;;14.73;;
4885;SDS011;2457;51.788;6.136;2023-05-10T05:53:24;31.03;;;15.70;;
4885;SDS011;2457;51.788;6.136;2023-05-10T05:55:55;26.53;;;15.10;;
4885;SDS011;2457;51.788;6.136;2023-05-10T05:58:22;40.50;;;15.33;;
4885;SDS011;2457;51.788;6.136;2023-05-10T06:00:50;29.70;;;16.10;;
4885;SDS011;2457;51.788;6.136;2023-05-10T06:03:18;30.57;;;15.83;;
4885;SDS011;2457;51.788;6.136;2023-05-10T06:05:45;31.90;;;15.50;;
4885;SDS011;2457;51.788;6.136;2023-05-10T06:08:13;31.20;;;15.90;;
4885;SDS011;2457;51.788;6.136;2023-05-10T06:10:40;32.27;;;14.50;;
4885;SDS011;2457;51.788;6.136;2023-05-10T06:13:07;29.77;;;15.60;;
4885;SDS011;2457;51.788;6.136;2023-05-10T06:15:34;32.30;;;15.60;;
4885;SDS011;2457;51.788;6.136;2023-05-10T06:18:02;26.77;;;14.00;;
4885;SDS011;2457;51.788;6.136;2023-05-10T06:20:29;31.07;;;14.90;;
4885;SDS011;2457;51.788;6.136;2023-05-10T06:22:57;27.00;;;15.00;;
4885;SDS011;2457;51.788;6.136;2023-05-10T06:25:25;29.13;;;15.27;;
4885;SDS011;2457;51.788;6.136;2023-05-10T06:27:52;26.90;;;15.43;;
4885;SDS011;2457;51.788;6.136;2023-05-10T06:30:21;25.80;;;13.53;;
4885;SDS011;2457;51.788;6.136;2023-05-10T06:32:50;29.40;;;13.90;;
4885;SDS011;2457;51.788;6.136;2023-05-10T06:35:18;26.50;;;14.10;;
4885;SDS011;2457;51.788;6.136;2023-05-10T06:37:45;27.17;;;13.63;;
4885;SDS011;2457;51.788;6.136;2023-05-10T06:40:13;27.37;;;14.10;;
4885;SDS011;2457;51.788;6.136;2023-05-10T06:42:40;25.40;;;11.97;;
4885;SDS011;2457;51.788;6.136;2023-05-10T06:45:08;22.90;;;11.53;;
4885;SDS011;2457;51.788;6.136;2023-05-10T06:47:35;20.87;;;11.77;;
4885;SDS011;2457;51.788;6.136;2023-05-10T06:50:02;20.50;;;10.93;;
4885;SDS011;2457;51.788;6.136;2023-05-10T06:52:30;23.70;;;11.90;;
4885;SDS011;2457;51.788;6.136;2023-05-10T06:54:57;21.67;;;11.83;;
4885;SDS011;2457;51.788;6.136;2023-05-10T06:57:24;22.87;;;10.60;;
4885;SDS011;2457;51.788;6.136;2023-05-10T06:59:52;22.63;;;11.90;;
4885;SDS011;2457;51.788;6.136;2023-05-10T07:02:19;24.50;;;11.53;;
4885;SDS011;2457;51.788;6.136;2023-05-10T07:04:47;22.00;;;12.23;;
4885;SDS011;2457;51.788;6.136;2023-05-10T07:07:15;22.33;;;11.80;;
4885;SDS011;2457;51.788;6.136;2023-05-10T07:09:42;21.20;;;11.53;;
4885;SDS011;2457;51.788;6.136;2023-05-10T07:12:09;24.97;;;11.30;;
4885;SDS011;2457;51.788;6.136;2023-05-10T07:14:36;20.03;;;10.57;;
4885;SDS011;2457;51.788;6.136;2023-05-10T07:17:04;22.90;;;11.47;;
4885;SDS011;2457;51.788;6.136;2023-05-10T07:19:31;21.37;;;11.67;;
4885;SDS011;2457;51.788;6.136;2023-05-10T07:21:58;23.07;;;12.00;;
4885;SDS011;2457;51.788;6.136;2023-05-10T07:24:26;24.70;;;12.23;;
4885;SDS011;2457;51.788;6.136;2023-05-10T07:26:53;23.63;;;12.27;;
4885;SDS011;2457;51.788;6.136;2023-05-10T07:29:20;26.40;;;13.10;;
4885;SDS011;2457;51.788;6.136;2023-05-10T07:31:48;24.47;;;11.87;;
4885;SDS011;2457;51.788;6.136;2023-05-10T07:34:15;22.70;;;11.40;;
4885;SDS011;2457;51.788;6.136;2023-05-10T07:36:42;22.50;;;10.67;;
4885;SDS011;2457;51.788;6.136;2023-05-10T07:39:10;23.13;;;11.87;;
4885;SDS011;2457;51.788;6.136;2023-05-10T07:41:37;23.07;;;10.73;;
4885;SDS011;2457;51.788;6.136;2023-05-10T07:44:05;23.57;;;10.90;;
4885;SDS011;2457;51.788;6.136;2023-05-10T07:46:32;22.33;;;10.43;;
4885;SDS011;2457;51.788;6.136;2023-05-10T07:48:59;24.80;;;11.33;;
4885;SDS011;2457;51.788;6.136;2023-05-10T07:51:27;19.70;;;11.10;;
4885;SDS011;2457;51.788;6.136;2023-05-10T07:53:54;29.70;;;12.10;;
4885;SDS011;2457;51.788;6.136;2023-05-10T07:56:31;25.10;;;11.53;;
4885;SDS011;2457;51.788;6.136;2023-05-10T07:58:55;28.33;;;11.80;;
4885;SDS011;2457;51.788;6.136;2023-05-10T08:01:23;26.37;;;13.10;;
4885;SDS011;2457;51.788;6.136;2023-05-10T08:03:50;23.90;;;11.23;;
4885;SDS011;2457;51.788;6.136;2023-05-10T08:06:19;26.23;;;12.50;;
4885;SDS011;2457;51.788;6.136;2023-05-10T08:08:47;24.63;;;11.80;;
4885;SDS011;2457;51.788;6.136;2023-05-10T08:11:18;26.00;;;11.30;;
4885;SDS011;2457;51.788;6.136;2023-05-10T08:13:47;20.83;;;10.90;;
4885;SDS011;2457;51.788;6.136;2023-05-10T08:16:15;19.70;;;10.67;;
4885;SDS011;2457;51.788;6.136;2023-05-10T08:18:43;23.23;;;11.67;;
4885;SDS011;2457;51.788;6.136;2023-05-10T08:21:11;20.77;;;11.07;;
4885;SDS011;2457;51.788;6.136;2023-05-10T08:23:38;27.10;;;11.80;;
4885;SDS011;2457;51.788;6.136;2023-05-10T08:26:05;22.17;;;10.97;;
4885;SDS011;2457;51.788;6.136;2023-05-10T08:28:33;21.20;;;11.50;;
4885;SDS011;2457;51.788;6.136;2023-05-10T08:31:00;21.63;;;10.60;;
4885;SDS011;2457;51.788;6.136;2023-05-10T08:33:27;23.63;;;11.67;;
4885;SDS011;2457;51.788;6.136;2023-05-10T08:35:55;21.43;;;10.60;;
4885;SDS011;2457;51.788;6.136;2023-05-10T08:38:22;27.97;;;12.00;;
4885;SDS011;2457;51.788;6.136;2023-05-10T08:40:49;27.43;;;12.47;;
4885;SDS011;2457;51.788;6.136;2023-05-10T08:43:18;21.83;;;12.13;;
4885;SDS011;2457;51.788;6.136;2023-05-10T08:45:46;20.80;;;10.07;;
4885;SDS011;2457;51.788;6.136;2023-05-10T08:48:14;19.03;;;11.00;;
4885;SDS011;2457;51.788;6.136;2023-05-10T08:50:42;20.77;;;10.90;;
4885;SDS011;2457;51.788;6.136;2023-05-10T08:53:10;27.30;;;11.77;;
4885;SDS011;2457;51.788;6.136;2023-05-10T08:55:38;21.00;;;10.20;;
4885;SDS011;2457;51.788;6.136;2023-05-10T08:58:06;25.00;;;12.33;;
4885;SDS011;2457;51.788;6.136;2023-05-10T09:00:33;23.80;;;11.73;;
4885;SDS011;2457;51.788;6.136;2023-05-10T09:03:02;23.03;;;11.73;;
4885;SDS011;2457;51.788;6.136;2023-05-10T09:05:29;20.23;;;10.90;;
4885;SDS011;2457;51.788;6.136;2023-05-10T09:07:57;26.20;;;13.03;;
4885;SDS011;2457;51.788;6.136;2023-05-10T09:10:26;23.40;;;12.97;;
4885;SDS011;2457;51.788;6.136;2023-05-10T09:12:55;30.73;;;12.83;;
4885;SDS011;2457;51.788;6.136;2023-05-10T09:15:23;23.57;;;12.53;;
4885;SDS011;2457;51.788;6.136;2023-05-10T09:17:51;30.57;;;12.70;;
4885;SDS011;2457;51.788;6.136;2023-05-10T09:20:18;22.93;;;12.63;;
4885;SDS011;2457;51.788;6.136;2023-05-10T09:22:45;31.87;;;13.50;;
4885;SDS011;2457;51.788;6.136;2023-05-10T09:25:14;28.93;;;13.87;;
4885;SDS011;2457;51.788;6.136;2023-05-10T09:27:46;28.43;;;13.23;;
4885;SDS011;2457;51.788;6.136;2023-05-10T09:30:24;21.93;;;12.23;;
4885;SDS011;2457;51.788;6.136;2023-05-10T09:32:52;23.90;;;14.00;;
4885;SDS011;2457;51.788;6.136;2023-05-10T09:35:20;29.50;;;13.57;;
4885;SDS011;2457;51.788;6.136;2023-05-10T09:37:48;28.30;;;13.23;;
4885;SDS011;2457;51.788;6.136;2023-05-10T09:40:23;30.03;;;13.67;;
4885;SDS011;2457;51.788;6.136;2023-05-10T09:42:56;24.93;;;13.70;;
4885;SDS011;2457;51.788;6.136;2023-05-10T09:45:24;28.60;;;13.93;;
4885;SDS011;2457;51.788;6.136;2023-05-10T09:47:53;27.80;;;12.70;;
4885;SDS011;2457;51.788;6.136;2023-05-10T09:50:20;30.77;;;12.50;;
4885;SDS011;2457;51.788;6.136;2023-05-10T09:55:18;25.80;;;13.90;;
4885;SDS011;2457;51.788;6.136;2023-05-10T09:57:49;23.43;;;12.80;;
4885;SDS011;2457;51.788;6.136;2023-05-10T10:00:17;26.37;;;12.90;;
4885;SDS011;2457;51.788;6.136;2023-05-10T10:02:53;28.03;;;12.77;;
4885;SDS011;2457;51.788;6.136;2023-05-10T10:05:14;25.30;;;13.90;;
4885;SDS011;2457;51.788;6.136;2023-05-10T10:07:41;23.50;;;12.67;;
4885;SDS011;2457;51.788;6.136;2023-05-10T10:10:09;28.37;;;13.07;;
4885;SDS011;2457;51.788;6.136;2023-05-10T10:12:38;25.63;;;13.40;;
4885;SDS011;2457;51.788;6.136;2023-05-10T10:15:07;29.73;;;13.10;;
4885;SDS011;2457;51.788;6.136;2023-05-10T10:17:35;23.70;;;12.10;;
4885;SDS011;2457;51.788;6.136;2023-05-10T10:20:06;22.10;;;11.63;;
4885;SDS011;2457;51.788;6.136;2023-05-10T10:22:34;25.80;;;13.53;;
4885;SDS011;2457;51.788;6.136;2023-05-10T10:25:01;22.80;;;11.20;;
4885;SDS011;2457;51.788;6.136;2023-05-10T10:30:25;22.23;;;10.87;;
4885;SDS011;2457;51.788;6.136;2023-05-10T10:33:13;21.10;;;10.50;;
4885;SDS011;2457;51.788;6.136;2023-05-10T10:35:39;19.80;;;9.80;;
4885;SDS011;2457;51.788;6.136;2023-05-10T10:38:07;24.93;;;10.77;;
4885;SDS011;2457;51.788;6.136;2023-05-10T10:40:35;22.00;;;11.50;;
4885;SDS011;2457;51.788;6.136;2023-05-10T10:43:21;22.90;;;11.63;;
4885;SDS011;2457;51.788;6.136;2023-05-10T10:46:09;22.63;;;11.37;;
4885;SDS011;2457;51.788;6.136;2023-05-10T10:48:38;22.00;;;10.53;;
4885;SDS011;2457;51.788;6.136;2023-05-10T10:51:06;24.37;;;11.27;;
4885;SDS011;2457;51.788;6.136;2023-05-10T10:53:33;19.60;;;10.60;;
4885;SDS011;2457;51.788;6.136;2023-05-10T10:56:10;21.77;;;10.67;;
4885;SDS011;2457;51.788;6.136;2023-05-10T10:58:39;24.60;;;11.67;;
4885;SDS011;2457;51.788;6.136;2023-05-10T11:01:16;25.57;;;11.47;;
4885;SDS011;2457;51.788;6.136;2023-05-10T11:06:31;21.70;;;10.80;;
4885;SDS011;2457;51.788;6.136;2023-05-10T11:09:05;21.13;;;11.80;;
4885;SDS011;2457;51.788;6.136;2023-05-10T11:11:28;27.90;;;12.50;;
4885;SDS011;2457;51.788;6.136;2023-05-10T11:13:55;21.00;;;10.50;;
4885;SDS011;2457;51.788;6.136;2023-05-10T11:16:24;21.70;;;11.27;;
4885;SDS011;2457;51.788;6.136;2023-05-10T11:19:10;22.43;;;10.87;;
4885;SDS011;2457;51.788;6.136;2023-05-10T11:21:34;23.27;;;11.00;;
4885;SDS011;2457;51.788;6.136;2023-05-10T11:24:08;21.07;;;10.70;;
4885;SDS011;2457;51.788;6.136;2023-05-10T11:26:34;23.70;;;11.27;;
4885;SDS011;2457;51.788;6.136;2023-05-10T11:29:00;21.13;;;10.17;;
4885;SDS011;2457;51.788;6.136;2023-05-10T11:31:29;21.40;;;12.17;;
4885;SDS011;2457;51.788;6.136;2023-05-10T11:33:57;19.97;;;9.10;;
4885;SDS011;2457;51.788;6.136;2023-05-10T11:36:26;19.53;;;10.00;;
4885;SDS011;2457;51.788;6.136;2023-05-10T11:38:54;18.67;;;8.80;;
4885;SDS011;2457;51.788;6.136;2023-05-10T11:41:22;23.07;;;8.73;;
4885;SDS011;2457;51.788;6.136;2023-05-10T11:43:50;19.80;;;9.70;;
4885;SDS011;2457;51.788;6.136;2023-05-10T11:46:21;20.30;;;9.23;;
4885;SDS011;2457;51.788;6.136;2023-05-10T11:48:58;20.83;;;10.17;;
4885;SDS011;2457;51.788;6.136;2023-05-10T11:51:27;20.60;;;8.40;;
4885;SDS011;2457;51.788;6.136;2023-05-10T11:53:55;15.23;;;8.27;;
4885;SDS011;2457;51.788;6.136;2023-05-10T11:56:22;17.93;;;8.90;;
4885;SDS011;2457;51.788;6.136;2023-05-10T11:58:55;20.13;;;8.10;;
4885;SDS011;2457;51.788;6.136;2023-05-10T12:01:23;18.83;;;8.77;;
4885;SDS011;2457;51.788;6.136;2023-05-10T12:03:50;19.40;;;8.20;;
4885;SDS011;2457;51.788;6.136;2023-05-10T12:06:18;16.97;;;8.10;;
4885;SDS011;2457;51.788;6.136;2023-05-10T12:08:47;19.77;;;8.10;;
4885;SDS011;2457;51.788;6.136;2023-05-10T12:11:16;14.80;;;7.13;;
4885;SDS011;2457;51.788;6.136;2023-05-10T12:13:44;17.40;;;7.70;;
4885;SDS011;2457;51.788;6.136;2023-05-10T12:16:21;18.70;;;8.47;;
4885;SDS011;2457;51.788;6.136;2023-05-10T12:18:55;16.47;;;9.00;;
4885;SDS011;2457;51.788;6.136;2023-05-10T12:21:18;13.93;;;7.93;;
4885;SDS011;2457;51.788;6.136;2023-05-10T12:23:48;15.47;;;7.50;;
4885;SDS011;2457;51.788;6.136;2023-05-10T12:26:15;13.47;;;7.70;;
4885;SDS011;2457;51.788;6.136;2023-05-10T12:28:42;14.07;;;7.20;;
4885;SDS011;2457;51.788;6.136;2023-05-10T12:31:10;16.97;;;8.20;;
4885;SDS011;2457;51.788;6.136;2023-05-10T12:33:41;14.53;;;7.40;;
4885;SDS011;2457;51.788;6.136;2023-05-10T12:36:09;12.13;;;7.00;;
4885;SDS011;2457;51.788;6.136;2023-05-10T12:38:37;14.70;;;8.43;;
4885;SDS011;2457;51.788;6.136;2023-05-10T12:41:06;11.20;;;5.90;;
4885;SDS011;2457;51.788;6.136;2023-05-10T12:43:34;12.77;;;6.57;;
4885;SDS011;2457;51.788;6.136;2023-05-10T12:46:05;15.43;;;6.47;;
4885;SDS011;2457;51.788;6.136;2023-05-10T12:48:32;12.97;;;6.00;;
4885;SDS011;2457;51.788;6.136;2023-05-10T12:51:00;15.27;;;7.07;;
4885;SDS011;2457;51.788;6.136;2023-05-10T12:53:28;15.33;;;7.80;;
4885;SDS011;2457;51.788;6.136;2023-05-10T12:55:56;14.03;;;6.53;;
4885;SDS011;2457;51.788;6.136;2023-05-10T12:58:23;11.40;;;6.43;;
4885;SDS011;2457;51.788;6.136;2023-05-10T13:00:50;12.90;;;6.30;;
4885;SDS011;2457;51.788;6.136;2023-05-10T13:03:18;10.57;;;5.40;;
4885;SDS011;2457;51.788;6.136;2023-05-10T13:05:45;11.80;;;5.90;;
4885;SDS011;2457;51.788;6.136;2023-05-10T13:08:12;12.13;;;5.77;;
4885;SDS011;2457;51.788;6.136;2023-05-10T13:10:39;10.20;;;5.63;;
4885;SDS011;2457;51.788;6.136;2023-05-10T13:13:07;10.23;;;4.97;;
4885;SDS011;2457;51.788;6.136;2023-05-10T13:15:34;15.70;;;6.33;;
4885;SDS011;2457;51.788;6.136;2023-05-10T13:18:01;12.70;;;5.63;;
4885;SDS011;2457;51.788;6.136;2023-05-10T13:20:29;12.33;;;6.03;;
4885;SDS011;2457;51.788;6.136;2023-05-10T13:22:56;9.33;;;4.90;;
4885;SDS011;2457;51.788;6.136;2023-05-10T13:25:23;13.63;;;5.27;;
4885;SDS011;2457;51.788;6.136;2023-05-10T13:27:51;11.70;;;6.07;;
4885;SDS011;2457;51.788;6.136;2023-05-10T13:30:18;9.60;;;5.70;;
4885;SDS011;2457;51.788;6.136;2023-05-10T13:32:45;13.23;;;5.57;;
4885;SDS011;2457;51.788;6.136;2023-05-10T13:35:12;12.00;;;5.70;;
4885;SDS011;2457;51.788;6.136;2023-05-10T13:37:40;11.30;;;5.83;;
4885;SDS011;2457;51.788;6.136;2023-05-10T13:40:07;11.00;;;5.27;;
4885;SDS011;2457;51.788;6.136;2023-05-10T13:42:34;11.23;;;5.07;;
4885;SDS011;2457;51.788;6.136;2023-05-10T13:45:02;9.70;;;5.40;;
4885;SDS011;2457;51.788;6.136;2023-05-10T13:47:29;12.47;;;4.93;;
4885;SDS011;2457;51.788;6.136;2023-05-10T13:49:57;10.27;;;5.47;;
4885;SDS011;2457;51.788;6.136;2023-05-10T13:52:24;12.97;;;5.37;;
4885;SDS011;2457;51.788;6.136;2023-05-10T13:54:51;13.90;;;5.50;;
4885;SDS011;2457;51.788;6.136;2023-05-10T13:57:20;13.00;;;5.60;;
4885;SDS011;2457;51.788;6.136;2023-05-10T13:59:48;11.93;;;5.20;;
4885;SDS011;2457;51.788;6.136;2023-05-10T14:02:15;9.30;;;4.80;;
4885;SDS011;2457;51.788;6.136;2023-05-10T14:04:42;12.07;;;5.80;;
4885;SDS011;2457;51.788;6.136;2023-05-10T14:07:10;10.93;;;4.50;;
4885;SDS011;2457;51.788;6.136;2023-05-10T14:09:37;9.70;;;4.87;;
4885;SDS011;2457;51.788;6.136;2023-05-10T14:12:04;8.83;;;4.73;;
4885;SDS011;2457;51.788;6.136;2023-05-10T14:14:31;10.77;;;5.30;;
4885;SDS011;2457;51.788;6.136;2023-05-10T14:16:59;9.63;;;5.40;;
4885;SDS011;2457;51.788;6.136;2023-05-10T14:19:26;9.70;;;4.80;;
4885;SDS011;2457;51.788;6.136;2023-05-10T14:21:54;10.50;;;4.67;;
4885;SDS011;2457;51.788;6.136;2023-05-10T14:24:21;9.90;;;4.30;;
4885;SDS011;2457;51.788;6.136;2023-05-10T14:26:48;9.17;;;4.90;;
4885;SDS011;2457;51.788;6.136;2023-05-10T14:29:17;8.13;;;4.30;;
4885;SDS011;2457;51.788;6.136;2023-05-10T14:31:45;7.97;;;4.20;;
4885;SDS011;2457;51.788;6.136;2023-05-10T14:34:12;9.80;;;3.97;;
4885;SDS011;2457;51.788;6.136;2023-05-10T14:36:39;8.83;;;3.90;;
4885;SDS011;2457;51.788;6.136;2023-05-10T14:39:06;11.17;;;4.40;;
4885;SDS011;2457;51.788;6.136;2023-05-10T14:41:35;6.67;;;3.33;;
4885;SDS011;2457;51.788;6.136;2023-05-10T14:44:03;7.40;;;3.80;;
4885;SDS011;2457;51.788;6.136;2023-05-10T14:46:31;7.23;;;3.73;;
4885;SDS011;2457;51.788;6.136;2023-05-10T14:48:58;8.33;;;3.40;;
4885;SDS011;2457;51.788;6.136;2023-05-10T14:51:25;10.10;;;4.20;;
4885;SDS011;2457;51.788;6.136;2023-05-10T14:53:53;7.73;;;3.40;;
4885;SDS011;2457;51.788;6.136;2023-05-10T14:56:20;8.07;;;3.67;;
4885;SDS011;2457;51.788;6.136;2023-05-10T14:58:49;10.37;;;3.83;;
4885;SDS011;2457;51.788;6.136;2023-05-10T15:01:16;10.40;;;4.70;;
4885;SDS011;2457;51.788;6.136;2023-05-10T15:03:43;8.90;;;4.67;;
4885;SDS011;2457;51.788;6.136;2023-05-10T15:06:10;11.97;;;4.90;;
4885;SDS011;2457;51.788;6.136;2023-05-10T15:08:38;10.00;;;4.10;;
4885;SDS011;2457;51.788;6.136;2023-05-10T15:11:05;13.90;;;4.20;;
4885;SDS011;2457;51.788;6.136;2023-05-10T15:13:32;9.30;;;4.17;;
4885;SDS011;2457;51.788;6.136;2023-05-10T15:15:59;23.27;;;10.27;;
4885;SDS011;2457;51.788;6.136;2023-05-10T15:18:27;8.80;;;5.00;;